sensor_id;sensor_type;location;lat;lon;timestamp;temperature;humidity
6291;DHT22;3178;48.730;8.990;2023-02-28T00:00:12;-0.80;94.70
6291;DHT22;3178;48.730;8.990;2023-02-28T00:02:41;-0.90;94.90
6291;DHT22;3178;48.730;8.990;2023-02-28T00:05:08;-0.90;94.90
6291;DHT22;3178;48.730;8.990;2023-02-28T00:07:35;-0.90;95.00
6291;DHT22;3178;48.730;8.990;2023-02-28T00:10:01;-1.00;95.20
6291;DHT22;3178;48.730;8.990;2023-02-28T00:12:27;-1.00;95.80
6291;DHT22;3178;48.730;8.990;2023-02-28T00:14:53;-1.00;95.90
6291;DHT22;3178;48.730;8.990;2023-02-28T00:17:19;-1.10;96.20
6291;DHT22;3178;48.730;8.990;2023-02-28T00:19:47;-1.00;96.30
6291;DHT22;3178;48.730;8.990;2023-02-28T00:22:14;-1.10;96.50
6291;DHT22;3178;48.730;8.990;2023-02-28T00:24:39;-1.10;96.10
6291;DHT22;3178;48.730;8.990;2023-02-28T00:27:05;-1.10;96.40
6291;DHT22;3178;48.730;8.990;2023-02-28T00:29:30;-1.10;96.60
6291;DHT22;3178;48.730;8.990;2023-02-28T00:31:56;-1.10;97.00
6291;DHT22;3178;48.730;8.990;2023-02-28T00:34:21;-1.20;97.10
6291;DHT22;3178;48.730;8.990;2023-02-28T00:36:47;-1.20;97.10
6291;DHT22;3178;48.730;8.990;2023-02-28T00:39:15;-1.30;97.60
6291;DHT22;3178;48.730;8.990;2023-02-28T00:41:41;-1.30;98.00
6291;DHT22;3178;48.730;8.990;2023-02-28T00:44:07;-1.30;98.40
6291;DHT22;3178;48.730;8.990;2023-02-28T00:46:32;-1.30;98.10
6291;DHT22;3178;48.730;8.990;2023-02-28T00:48:58;-1.40;98.60
6291;DHT22;3178;48.730;8.990;2023-02-28T00:51:24;-1.40;98.80
6291;DHT22;3178;48.730;8.990;2023-02-28T00:53:49;-1.40;99.00
6291;DHT22;3178;48.730;8.990;2023-02-28T00:56:15;-1.40;99.30
6291;DHT22;3178;48.730;8.990;2023-02-28T00:58:40;-1.40;99.40
6291;DHT22;3178;48.730;8.990;2023-02-28T01:01:06;-1.40;99.70
6291;DHT22;3178;48.730;8.990;2023-02-28T01:03:32;-1.40;99.80
6291;DHT22;3178;48.730;8.990;2023-02-28T01:05:58;-1.40;99.90
6291;DHT22;3178;48.730;8.990;2023-02-28T01:08:23;-1.50;99.90
6291;DHT22;3178;48.730;8.990;2023-02-28T01:10:49;-1.50;99.90
6291;DHT22;3178;48.730;8.990;2023-02-28T01:13:15;-1.50;99.90
6291;DHT22;3178;48.730;8.990;2023-02-28T01:15:50;-1.50;99.90
6291;DHT22;3178;48.730;8.990;2023-02-28T01:18:16;-1.60;99.90
6291;DHT22;3178;48.730;8.990;2023-02-28T01:20:41;-1.50;99.90
6291;DHT22;3178;48.730;8.990;2023-02-28T01:23:07;-1.60;99.90
6291;DHT22;3178;48.730;8.990;2023-02-28T01:25:35;-1.60;99.90
6291;DHT22;3178;48.730;8.990;2023-02-28T01:28:01;-1.60;99.90
6291;DHT22;3178;48.730;8.990;2023-02-28T01:30:26;-1.60;99.90
6291;DHT22;3178;48.730;8.990;2023-02-28T01:32:52;-1.60;99.90
6291;DHT22;3178;48.730;8.990;2023-02-28T01:35:19;-1.60;99.90
6291;DHT22;3178;48.730;8.990;2023-02-28T01:37:44;-1.60;99.90
6291;DHT22;3178;48.730;8.990;2023-02-28T01:40:10;-1.60;99.90
6291;DHT22;3178;48.730;8.990;2023-02-28T01:42:36;-1.60;99.90
6291;DHT22;3178;48.730;8.990;2023-02-28T01:45:28;-1.60;99.90
6291;DHT22;3178;48.730;8.990;2023-02-28T01:48:01;-1.60;99.90
6291;DHT22;3178;48.730;8.990;2023-02-28T01:50:33;-1.60;99.90
6291;DHT22;3178;48.730;8.990;2023-02-28T01:53:02;-1.60;99.90
6291;DHT22;3178;48.730;8.990;2023-02-28T01:55:31;-1.60;99.90
6291;DHT22;3178;48.730;8.990;2023-02-28T01:58:00;-1.60;99.90
6291;DHT22;3178;48.730;8.990;2023-02-28T02:00:28;-1.60;99.90
6291;DHT22;3178;48.730;8.990;2023-02-28T02:02:58;-1.60;99.90
6291;DHT22;3178;48.730;8.990;2023-02-28T02:05:27;-1.70;99.90
6291;DHT22;3178;48.730;8.990;2023-02-28T02:08:11;-1.70;99.90
6291;DHT22;3178;48.730;8.990;2023-02-28T02:10:50;-1.60;99.90
6291;DHT22;3178;48.730;8.990;2023-02-28T02:16:19;-1.70;99.90
6291;DHT22;3178;48.730;8.990;2023-02-28T02:33:01;-1.70;99.90
6291;DHT22;3178;48.730;8.990;2023-02-28T02:35:52;-1.70;99.90
6291;DHT22;3178;48.730;8.990;2023-02-28T02:38:46;-1.70;99.90
6291;DHT22;3178;48.730;8.990;2023-02-28T02:44:02;-1.70;99.90
6291;DHT22;3178;48.730;8.990;2023-02-28T02:46:38;-1.70;99.90
6291;DHT22;3178;48.730;8.990;2023-02-28T02:49:08;-1.70;99.90
6291;DHT22;3178;48.730;8.990;2023-02-28T02:51:36;-1.70;99.90
6291;DHT22;3178;48.730;8.990;2023-02-28T02:54:24;-1.70;99.90
6291;DHT22;3178;48.730;8.990;2023-02-28T02:56:55;-1.70;99.90
6291;DHT22;3178;48.730;8.990;2023-02-28T02:59:23;-1.60;99.90
6291;DHT22;3178;48.730;8.990;2023-02-28T03:01:53;-1.60;99.90
6291;DHT22;3178;48.730;8.990;2023-02-28T03:04:21;-1.60;99.90
6291;DHT22;3178;48.730;8.990;2023-02-28T03:06:48;-1.60;99.90
6291;DHT22;3178;48.730;8.990;2023-02-28T03:09:15;-1.60;99.90
6291;DHT22;3178;48.730;8.990;2023-02-28T03:11:41;-1.60;99.90
6291;DHT22;3178;48.730;8.990;2023-02-28T03:14:25;-1.60;99.90
6291;DHT22;3178;48.730;8.990;2023-02-28T03:22:39;-1.60;99.90
6291;DHT22;3178;48.730;8.990;2023-02-28T03:28:20;-1.50;99.90
6291;DHT22;3178;48.730;8.990;2023-02-28T03:30:51;-1.60;99.90
6291;DHT22;3178;48.730;8.990;2023-02-28T03:33:29;-1.60;99.90
6291;DHT22;3178;48.730;8.990;2023-02-28T03:36:06;-1.60;99.90
6291;DHT22;3178;48.730;8.990;2023-02-28T03:38:38;-1.70;99.90
6291;DHT22;3178;48.730;8.990;2023-02-28T03:41:16;-1.60;99.90
6291;DHT22;3178;48.730;8.990;2023-02-28T03:43:56;-1.60;99.90
6291;DHT22;3178;48.730;8.990;2023-02-28T03:46:25;-1.60;99.90
6291;DHT22;3178;48.730;8.990;2023-02-28T03:49:14;-1.60;99.90
6291;DHT22;3178;48.730;8.990;2023-02-28T03:51:42;-1.60;99.90
6291;DHT22;3178;48.730;8.990;2023-02-28T03:54:19;-1.50;99.90
6291;DHT22;3178;48.730;8.990;2023-02-28T03:56:59;-1.50;99.90
6291;DHT22;3178;48.730;8.990;2023-02-28T03:59:53;-1.50;99.90
6291;DHT22;3178;48.730;8.990;2023-02-28T04:02:21;-1.50;99.90
6291;DHT22;3178;48.730;8.990;2023-02-28T04:04:46;-1.50;99.90
6291;DHT22;3178;48.730;8.990;2023-02-28T04:07:14;-1.40;99.90
6291;DHT22;3178;48.730;8.990;2023-02-28T04:09:39;-1.40;99.90
6291;DHT22;3178;48.730;8.990;2023-02-28T04:12:05;-1.40;99.90
6291;DHT22;3178;48.730;8.990;2023-02-28T04:14:31;-1.40;99.90
6291;DHT22;3178;48.730;8.990;2023-02-28T04:16:56;-1.40;99.90
6291;DHT22;3178;48.730;8.990;2023-02-28T04:19:22;-1.40;99.90
6291;DHT22;3178;48.730;8.990;2023-02-28T04:21:50;-1.40;99.90
6291;DHT22;3178;48.730;8.990;2023-02-28T04:24:19;-1.40;99.90
6291;DHT22;3178;48.730;8.990;2023-02-28T04:26:47;-1.30;99.90
6291;DHT22;3178;48.730;8.990;2023-02-28T04:29:15;-1.40;99.90
6291;DHT22;3178;48.730;8.990;2023-02-28T04:31:43;-1.40;99.90
6291;DHT22;3178;48.730;8.990;2023-02-28T04:34:09;-1.40;99.90
6291;DHT22;3178;48.730;8.990;2023-02-28T04:36:34;-1.40;99.90
6291;DHT22;3178;48.730;8.990;2023-02-28T04:39:00;-1.30;99.90
6291;DHT22;3178;48.730;8.990;2023-02-28T04:41:26;-1.30;99.90
6291;DHT22;3178;48.730;8.990;2023-02-28T04:43:52;-1.30;99.90
6291;DHT22;3178;48.730;8.990;2023-02-28T04:46:18;-1.30;99.90
6291;DHT22;3178;48.730;8.990;2023-02-28T04:48:44;-1.30;99.90
6291;DHT22;3178;48.730;8.990;2023-02-28T04:51:12;-1.30;99.90
6291;DHT22;3178;48.730;8.990;2023-02-28T04:53:39;-1.20;99.90
6291;DHT22;3178;48.730;8.990;2023-02-28T04:56:06;-1.20;99.90
6291;DHT22;3178;48.730;8.990;2023-02-28T04:58:32;-1.20;99.90
6291;DHT22;3178;48.730;8.990;2023-02-28T05:01:06;-1.20;99.90
6291;DHT22;3178;48.730;8.990;2023-02-28T05:03:38;-1.20;99.90
6291;DHT22;3178;48.730;8.990;2023-02-28T05:06:06;-1.20;99.90
6291;DHT22;3178;48.730;8.990;2023-02-28T05:08:31;-1.20;99.90
6291;DHT22;3178;48.730;8.990;2023-02-28T05:10:57;-1.20;99.90
6291;DHT22;3178;48.730;8.990;2023-02-28T05:13:22;-1.20;99.90
6291;DHT22;3178;48.730;8.990;2023-02-28T05:15:48;-1.30;99.90
6291;DHT22;3178;48.730;8.990;2023-02-28T05:18:14;-1.30;99.90
6291;DHT22;3178;48.730;8.990;2023-02-28T05:20:39;-1.30;99.90
6291;DHT22;3178;48.730;8.990;2023-02-28T05:23:05;-1.20;99.90
6291;DHT22;3178;48.730;8.990;2023-02-28T05:25:30;-1.20;99.90
6291;DHT22;3178;48.730;8.990;2023-02-28T05:27:56;-1.20;99.90
6291;DHT22;3178;48.730;8.990;2023-02-28T05:30:21;-1.20;99.90
6291;DHT22;3178;48.730;8.990;2023-02-28T05:32:50;-1.20;99.90
6291;DHT22;3178;48.730;8.990;2023-02-28T05:35:16;-1.20;99.90
6291;DHT22;3178;48.730;8.990;2023-02-28T05:37:42;-1.20;99.90
6291;DHT22;3178;48.730;8.990;2023-02-28T05:40:08;-1.20;99.90
6291;DHT22;3178;48.730;8.990;2023-02-28T05:42:36;-1.10;99.90
6291;DHT22;3178;48.730;8.990;2023-02-28T05:45:03;-1.10;99.90
6291;DHT22;3178;48.730;8.990;2023-02-28T05:47:29;-1.10;99.90
6291;DHT22;3178;48.730;8.990;2023-02-28T05:49:54;-1.20;99.90
6291;DHT22;3178;48.730;8.990;2023-02-28T05:52:20;-1.10;99.90
6291;DHT22;3178;48.730;8.990;2023-02-28T05:54:46;-1.10;99.90
6291;DHT22;3178;48.730;8.990;2023-02-28T05:57:12;-1.10;99.90
6291;DHT22;3178;48.730;8.990;2023-02-28T05:59:37;-1.10;99.90
6291;DHT22;3178;48.730;8.990;2023-02-28T06:02:05;-1.20;99.90
6291;DHT22;3178;48.730;8.990;2023-02-28T06:04:31;-1.20;99.90
6291;DHT22;3178;48.730;8.990;2023-02-28T06:06:57;-1.20;99.90
6291;DHT22;3178;48.730;8.990;2023-02-28T06:09:22;-1.20;99.90
6291;DHT22;3178;48.730;8.990;2023-02-28T06:11:48;-1.20;99.90
6291;DHT22;3178;48.730;8.990;2023-02-28T06:14:19;-1.10;99.90
6291;DHT22;3178;48.730;8.990;2023-02-28T06:16:44;-1.10;99.90
6291;DHT22;3178;48.730;8.990;2023-02-28T06:19:10;-1.10;99.90
6291;DHT22;3178;48.730;8.990;2023-02-28T06:21:36;-1.10;99.90
6291;DHT22;3178;48.730;8.990;2023-02-28T06:24:02;-1.10;99.90
6291;DHT22;3178;48.730;8.990;2023-02-28T06:26:28;-1.10;99.90
6291;DHT22;3178;48.730;8.990;2023-02-28T06:28:54;-1.00;99.90
6291;DHT22;3178;48.730;8.990;2023-02-28T06:31:20;-1.10;99.90
6291;DHT22;3178;48.730;8.990;2023-02-28T06:33:46;-1.10;99.90
6291;DHT22;3178;48.730;8.990;2023-02-28T06:36:13;-1.10;99.90
6291;DHT22;3178;48.730;8.990;2023-02-28T06:38:40;-1.20;99.90
6291;DHT22;3178;48.730;8.990;2023-02-28T06:41:06;-1.10;99.90
6291;DHT22;3178;48.730;8.990;2023-02-28T06:43:35;-1.20;99.90
6291;DHT22;3178;48.730;8.990;2023-02-28T06:46:03;-1.10;99.90
6291;DHT22;3178;48.730;8.990;2023-02-28T06:48:29;-1.10;99.90
6291;DHT22;3178;48.730;8.990;2023-02-28T06:51:09;-1.10;99.90
6291;DHT22;3178;48.730;8.990;2023-02-28T06:53:35;-1.10;99.90
6291;DHT22;3178;48.730;8.990;2023-02-28T06:56:09;-1.10;99.90
6291;DHT22;3178;48.730;8.990;2023-02-28T06:58:35;-1.10;99.90
6291;DHT22;3178;48.730;8.990;2023-02-28T07:01:01;-1.10;99.90
6291;DHT22;3178;48.730;8.990;2023-02-28T07:03:27;-1.10;99.90
6291;DHT22;3178;48.730;8.990;2023-02-28T07:05:52;-1.10;99.90
6291;DHT22;3178;48.730;8.990;2023-02-28T07:08:18;-1.10;99.90
6291;DHT22;3178;48.730;8.990;2023-02-28T07:10:44;-1.10;99.90
6291;DHT22;3178;48.730;8.990;2023-02-28T07:13:10;-1.00;99.90
6291;DHT22;3178;48.730;8.990;2023-02-28T07:15:36;-1.00;99.90
6291;DHT22;3178;48.730;8.990;2023-02-28T07:18:02;-1.00;99.90
6291;DHT22;3178;48.730;8.990;2023-02-28T07:20:30;-0.90;99.90
6291;DHT22;3178;48.730;8.990;2023-02-28T07:22:55;-0.90;99.90
6291;DHT22;3178;48.730;8.990;2023-02-28T07:25:25;-0.80;99.90
6291;DHT22;3178;48.730;8.990;2023-02-28T07:27:51;-0.70;99.90
6291;DHT22;3178;48.730;8.990;2023-02-28T07:30:17;-0.70;99.90
6291;DHT22;3178;48.730;8.990;2023-02-28T07:32:42;-0.70;99.90
6291;DHT22;3178;48.730;8.990;2023-02-28T07:35:08;-0.70;99.90
6291;DHT22;3178;48.730;8.990;2023-02-28T07:37:34;-0.70;99.90
6291;DHT22;3178;48.730;8.990;2023-02-28T07:40:03;-0.70;99.90
6291;DHT22;3178;48.730;8.990;2023-02-28T07:42:31;-0.70;99.90
6291;DHT22;3178;48.730;8.990;2023-02-28T07:44:57;-0.60;99.90
6291;DHT22;3178;48.730;8.990;2023-02-28T07:47:24;-0.70;99.90
6291;DHT22;3178;48.730;8.990;2023-02-28T07:49:49;-0.60;99.90
6291;DHT22;3178;48.730;8.990;2023-02-28T07:52:15;-0.60;99.90
6291;DHT22;3178;48.730;8.990;2023-02-28T07:54:40;-0.60;99.90
6291;DHT22;3178;48.730;8.990;2023-02-28T07:57:06;-0.60;99.90
6291;DHT22;3178;48.730;8.990;2023-02-28T07:59:31;-0.60;99.90
6291;DHT22;3178;48.730;8.990;2023-02-28T08:01:58;-0.60;99.90
6291;DHT22;3178;48.730;8.990;2023-02-28T08:04:24;-0.50;99.90
6291;DHT22;3178;48.730;8.990;2023-02-28T08:06:49;-0.50;99.90
6291;DHT22;3178;48.730;8.990;2023-02-28T08:09:17;-0.50;99.90
6291;DHT22;3178;48.730;8.990;2023-02-28T08:11:42;-0.50;99.90
6291;DHT22;3178;48.730;8.990;2023-02-28T08:14:08;-0.50;99.90
6291;DHT22;3178;48.730;8.990;2023-02-28T08:16:34;-0.50;99.90
6291;DHT22;3178;48.730;8.990;2023-02-28T08:18:59;-0.40;99.90
6291;DHT22;3178;48.730;8.990;2023-02-28T08:21:25;-0.40;99.90
6291;DHT22;3178;48.730;8.990;2023-02-28T08:23:51;-0.50;99.90
6291;DHT22;3178;48.730;8.990;2023-02-28T08:26:17;-0.40;99.90
6291;DHT22;3178;48.730;8.990;2023-02-28T08:28:43;-0.40;99.90
6291;DHT22;3178;48.730;8.990;2023-02-28T08:31:10;-0.40;99.90
6291;DHT22;3178;48.730;8.990;2023-02-28T08:33:37;-0.40;99.90
6291;DHT22;3178;48.730;8.990;2023-02-28T08:36:04;-0.30;99.90
6291;DHT22;3178;48.730;8.990;2023-02-28T08:38:30;-0.30;99.90
6291;DHT22;3178;48.730;8.990;2023-02-28T08:41:01;-0.30;99.90
6291;DHT22;3178;48.730;8.990;2023-02-28T08:43:27;-0.30;99.90
6291;DHT22;3178;48.730;8.990;2023-02-28T08:45:54;-0.30;99.90
6291;DHT22;3178;48.730;8.990;2023-02-28T08:48:25;-0.30;99.90
6291;DHT22;3178;48.730;8.990;2023-02-28T08:50:58;-0.30;99.90
6291;DHT22;3178;48.730;8.990;2023-02-28T08:53:24;-0.20;99.90
6291;DHT22;3178;48.730;8.990;2023-02-28T08:56:00;-0.20;99.90
6291;DHT22;3178;48.730;8.990;2023-02-28T08:58:26;-0.20;99.90
6291;DHT22;3178;48.730;8.990;2023-02-28T09:00:52;-0.20;99.90
6291;DHT22;3178;48.730;8.990;2023-02-28T09:03:18;-0.20;99.90
6291;DHT22;3178;48.730;8.990;2023-02-28T09:05:58;-0.20;99.90
6291;DHT22;3178;48.730;8.990;2023-02-28T09:08:25;-0.30;99.90
6291;DHT22;3178;48.730;8.990;2023-02-28T09:10:51;-0.20;99.90
6291;DHT22;3178;48.730;8.990;2023-02-28T09:13:18;-0.20;99.90
6291;DHT22;3178;48.730;8.990;2023-02-28T09:15:44;-0.20;99.90
6291;DHT22;3178;48.730;8.990;2023-02-28T09:18:09;-0.20;99.90
6291;DHT22;3178;48.730;8.990;2023-02-28T09:20:40;-0.20;99.90
6291;DHT22;3178;48.730;8.990;2023-02-28T09:23:07;-0.20;99.90
6291;DHT22;3178;48.730;8.990;2023-02-28T09:25:35;-0.20;99.90
6291;DHT22;3178;48.730;8.990;2023-02-28T09:28:01;-0.10;99.90
6291;DHT22;3178;48.730;8.990;2023-02-28T09:30:27;-0.10;99.90
6291;DHT22;3178;48.730;8.990;2023-02-28T09:32:52;-0.10;99.90
6291;DHT22;3178;48.730;8.990;2023-02-28T09:35:20;0.00;99.90
6291;DHT22;3178;48.730;8.990;2023-02-28T09:37:47;0.00;99.90
6291;DHT22;3178;48.730;8.990;2023-02-28T09:40:13;0.00;99.90
6291;DHT22;3178;48.730;8.990;2023-02-28T09:42:40;0.00;99.90
6291;DHT22;3178;48.730;8.990;2023-02-28T09:45:24;0.10;99.90
6291;DHT22;3178;48.730;8.990;2023-02-28T09:47:55;0.10;99.90
6291;DHT22;3178;48.730;8.990;2023-02-28T09:50:38;0.10;99.90
6291;DHT22;3178;48.730;8.990;2023-02-28T09:53:22;0.10;99.90
6291;DHT22;3178;48.730;8.990;2023-02-28T09:55:52;0.00;99.90
6291;DHT22;3178;48.730;8.990;2023-02-28T09:58:33;0.00;99.90
6291;DHT22;3178;48.730;8.990;2023-02-28T10:01:18;0.00;99.90
6291;DHT22;3178;48.730;8.990;2023-02-28T10:06:44;0.10;99.90
6291;DHT22;3178;48.730;8.990;2023-02-28T10:09:19;0.20;99.90
6291;DHT22;3178;48.730;8.990;2023-02-28T10:11:48;0.20;99.90
6291;DHT22;3178;48.730;8.990;2023-02-28T10:14:27;0.30;99.90
6291;DHT22;3178;48.730;8.990;2023-02-28T10:16:58;0.40;99.90
6291;DHT22;3178;48.730;8.990;2023-02-28T10:19:38;0.40;99.90
6291;DHT22;3178;48.730;8.990;2023-02-28T10:22:14;0.40;99.90
6291;DHT22;3178;48.730;8.990;2023-02-28T10:24:43;0.50;99.90
6291;DHT22;3178;48.730;8.990;2023-02-28T10:27:21;0.50;99.90
6291;DHT22;3178;48.730;8.990;2023-02-28T10:29:50;0.50;99.90
6291;DHT22;3178;48.730;8.990;2023-02-28T10:32:18;0.50;99.90
6291;DHT22;3178;48.730;8.990;2023-02-28T10:34:43;0.40;99.90
6291;DHT22;3178;48.730;8.990;2023-02-28T10:37:11;0.50;99.90
6291;DHT22;3178;48.730;8.990;2023-02-28T10:39:43;0.50;99.90
6291;DHT22;3178;48.730;8.990;2023-02-28T10:42:28;0.60;99.90
6291;DHT22;3178;48.730;8.990;2023-02-28T10:45:16;0.60;99.90
6291;DHT22;3178;48.730;8.990;2023-02-28T10:47:54;0.70;99.90
6291;DHT22;3178;48.730;8.990;2023-02-28T10:50:45;0.70;99.90
6291;DHT22;3178;48.730;8.990;2023-02-28T11:01:42;1.00;99.90
6291;DHT22;3178;48.730;8.990;2023-02-28T11:04:32;1.10;99.90
6291;DHT22;3178;48.730;8.990;2023-02-28T11:07:03;1.20;99.90
6291;DHT22;3178;48.730;8.990;2023-02-28T11:09:35;1.30;99.90
6291;DHT22;3178;48.730;8.990;2023-02-28T11:12:07;1.30;99.90
6291;DHT22;3178;48.730;8.990;2023-02-28T11:14:47;1.40;99.90
6291;DHT22;3178;48.730;8.990;2023-02-28T11:17:18;1.50;99.90
6291;DHT22;3178;48.730;8.990;2023-02-28T11:19:48;1.50;99.90
6291;DHT22;3178;48.730;8.990;2023-02-28T11:22:24;1.60;99.90
6291;DHT22;3178;48.730;8.990;2023-02-28T11:24:56;1.60;99.90
6291;DHT22;3178;48.730;8.990;2023-02-28T11:27:45;1.60;99.90
6291;DHT22;3178;48.730;8.990;2023-02-28T11:30:27;1.80;99.90
6291;DHT22;3178;48.730;8.990;2023-02-28T11:32:53;1.90;99.90
6291;DHT22;3178;48.730;8.990;2023-02-28T11:37:58;2.20;99.90
6291;DHT22;3178;48.730;8.990;2023-02-28T11:46:39;3.30;99.90
6291;DHT22;3178;48.730;8.990;2023-02-28T11:51:57;3.70;99.90
6291;DHT22;3178;48.730;8.990;2023-02-28T11:57:16;4.20;99.90
6291;DHT22;3178;48.730;8.990;2023-02-28T12:02:33;4.90;99.90
6291;DHT22;3178;48.730;8.990;2023-02-28T12:05:24;5.40;99.90
6291;DHT22;3178;48.730;8.990;2023-02-28T12:08:16;6.30;99.90
6291;DHT22;3178;48.730;8.990;2023-02-28T12:11:19;7.00;99.90
6291;DHT22;3178;48.730;8.990;2023-02-28T12:14:15;7.60;94.30
6291;DHT22;3178;48.730;8.990;2023-02-28T12:19:39;8.40;91.10
6291;DHT22;3178;48.730;8.990;2023-02-28T12:23:16;8.50;90.40
6291;DHT22;3178;48.730;8.990;2023-02-28T12:28:16;8.90;90.10
6291;DHT22;3178;48.730;8.990;2023-02-28T12:31:00;9.30;87.90
6291;DHT22;3178;48.730;8.990;2023-02-28T12:33:31;9.50;85.70
6291;DHT22;3178;48.730;8.990;2023-02-28T12:36:04;9.70;85.40
6291;DHT22;3178;48.730;8.990;2023-02-28T12:38:38;9.60;82.60
6291;DHT22;3178;48.730;8.990;2023-02-28T12:41:42;9.30;82.20
6291;DHT22;3178;48.730;8.990;2023-02-28T12:44:21;9.00;80.50
6291;DHT22;3178;48.730;8.990;2023-02-28T12:46:51;8.40;81.50
6291;DHT22;3178;48.730;8.990;2023-02-28T12:51:52;8.00;82.40
6291;DHT22;3178;48.730;8.990;2023-02-28T12:54:39;7.90;84.30
6291;DHT22;3178;48.730;8.990;2023-02-28T12:57:18;8.00;84.30
6291;DHT22;3178;48.730;8.990;2023-02-28T12:59:56;8.20;84.20
6291;DHT22;3178;48.730;8.990;2023-02-28T13:05:34;8.90;80.10
6291;DHT22;3178;48.730;8.990;2023-02-28T13:08:37;9.10;82.70
6291;DHT22;3178;48.730;8.990;2023-02-28T13:11:06;9.50;79.80
6291;DHT22;3178;48.730;8.990;2023-02-28T13:13:31;9.80;78.30
6291;DHT22;3178;48.730;8.990;2023-02-28T13:16:09;9.90;78.90
6291;DHT22;3178;48.730;8.990;2023-02-28T13:18:42;10.20;74.60
6291;DHT22;3178;48.730;8.990;2023-02-28T13:21:21;10.00;75.70
6291;DHT22;3178;48.730;8.990;2023-02-28T13:29:14;10.10;75.30
6291;DHT22;3178;48.730;8.990;2023-02-28T13:34:34;10.10;76.90
6291;DHT22;3178;48.730;8.990;2023-02-28T13:39:55;10.50;77.70
6291;DHT22;3178;48.730;8.990;2023-02-28T13:48:03;11.30;69.60
6291;DHT22;3178;48.730;8.990;2023-02-28T13:50:37;10.90;70.00
6291;DHT22;3178;48.730;8.990;2023-02-28T14:02:40;11.20;70.60
6291;DHT22;3178;48.730;8.990;2023-02-28T14:04:56;11.30;69.30
6291;DHT22;3178;48.730;8.990;2023-02-28T14:07:28;11.20;69.30
6291;DHT22;3178;48.730;8.990;2023-02-28T14:10:04;11.60;69.70
6291;DHT22;3178;48.730;8.990;2023-02-28T14:20:47;11.60;67.10
6291;DHT22;3178;48.730;8.990;2023-02-28T14:26:13;11.70;66.00
6291;DHT22;3178;48.730;8.990;2023-02-28T14:31:25;11.50;66.10
6291;DHT22;3178;48.730;8.990;2023-02-28T14:33:59;11.50;67.00
6291;DHT22;3178;48.730;8.990;2023-02-28T14:36:36;11.60;66.00
6291;DHT22;3178;48.730;8.990;2023-02-28T14:39:14;11.50;66.10
6291;DHT22;3178;48.730;8.990;2023-02-28T14:41:41;11.30;66.60
6291;DHT22;3178;48.730;8.990;2023-02-28T14:44:16;11.10;66.40
6291;DHT22;3178;48.730;8.990;2023-02-28T14:46:43;10.90;65.80
6291;DHT22;3178;48.730;8.990;2023-02-28T14:49:20;10.30;67.40
6291;DHT22;3178;48.730;8.990;2023-02-28T14:51:50;9.80;70.60
6291;DHT22;3178;48.730;8.990;2023-02-28T14:54:26;9.50;70.60
6291;DHT22;3178;48.730;8.990;2023-02-28T14:56:52;9.10;70.80
6291;DHT22;3178;48.730;8.990;2023-02-28T14:59:29;8.70;70.80
6291;DHT22;3178;48.730;8.990;2023-02-28T15:02:21;8.40;72.10
6291;DHT22;3178;48.730;8.990;2023-02-28T15:04:59;8.10;72.30
6291;DHT22;3178;48.730;8.990;2023-02-28T15:07:25;7.70;75.20
6291;DHT22;3178;48.730;8.990;2023-02-28T15:10:20;7.60;74.30
6291;DHT22;3178;48.730;8.990;2023-02-28T15:13:04;7.40;75.40
6291;DHT22;3178;48.730;8.990;2023-02-28T15:15:51;7.20;75.30
6291;DHT22;3178;48.730;8.990;2023-02-28T15:21:17;6.90;77.10
6291;DHT22;3178;48.730;8.990;2023-02-28T15:23:46;6.80;77.70
6291;DHT22;3178;48.730;8.990;2023-02-28T15:26:22;6.70;76.90
6291;DHT22;3178;48.730;8.990;2023-02-28T15:29:01;6.60;77.10
6291;DHT22;3178;48.730;8.990;2023-02-28T15:31:35;6.60;78.00
6291;DHT22;3178;48.730;8.990;2023-02-28T15:34:06;6.50;77.20
6291;DHT22;3178;48.730;8.990;2023-02-28T15:36:34;6.40;78.00
6291;DHT22;3178;48.730;8.990;2023-02-28T15:39:16;6.30;78.10
6291;DHT22;3178;48.730;8.990;2023-02-28T15:41:43;6.20;78.70
6291;DHT22;3178;48.730;8.990;2023-02-28T15:44:38;6.00;80.40
6291;DHT22;3178;48.730;8.990;2023-02-28T15:47:21;6.00;79.60
6291;DHT22;3178;48.730;8.990;2023-02-28T15:50:10;5.90;79.60
6291;DHT22;3178;48.730;8.990;2023-02-28T15:52:40;5.70;79.80
6291;DHT22;3178;48.730;8.990;2023-02-28T15:55:11;5.50;80.30
6291;DHT22;3178;48.730;8.990;2023-02-28T15:57:39;5.50;82.90
6291;DHT22;3178;48.730;8.990;2023-02-28T16:00:11;5.50;82.00
6291;DHT22;3178;48.730;8.990;2023-02-28T16:02:38;5.40;81.50
6291;DHT22;3178;48.730;8.990;2023-02-28T16:07:43;5.30;83.30
6291;DHT22;3178;48.730;8.990;2023-02-28T16:10:11;5.30;83.20
6291;DHT22;3178;48.730;8.990;2023-02-28T16:12:38;5.30;83.50
6291;DHT22;3178;48.730;8.990;2023-02-28T16:15:19;5.20;83.20
6291;DHT22;3178;48.730;8.990;2023-02-28T16:17:45;5.20;83.90
6291;DHT22;3178;48.730;8.990;2023-02-28T16:20:24;5.20;83.80
6291;DHT22;3178;48.730;8.990;2023-02-28T16:22:49;5.20;83.90
6291;DHT22;3178;48.730;8.990;2023-02-28T16:25:22;5.10;84.60
6291;DHT22;3178;48.730;8.990;2023-02-28T16:27:50;5.00;85.20
6291;DHT22;3178;48.730;8.990;2023-02-28T16:30:24;5.00;85.00
6291;DHT22;3178;48.730;8.990;2023-02-28T16:32:52;5.00;86.20
6291;DHT22;3178;48.730;8.990;2023-02-28T16:35:18;4.90;85.20
6291;DHT22;3178;48.730;8.990;2023-02-28T16:37:44;4.90;85.30
6291;DHT22;3178;48.730;8.990;2023-02-28T16:40:15;4.80;86.40
6291;DHT22;3178;48.730;8.990;2023-02-28T16:42:42;4.70;86.70
6291;DHT22;3178;48.730;8.990;2023-02-28T16:45:18;4.60;86.90
6291;DHT22;3178;48.730;8.990;2023-02-28T16:47:45;4.50;87.00
6291;DHT22;3178;48.730;8.990;2023-02-28T16:50:22;4.50;87.00
6291;DHT22;3178;48.730;8.990;2023-02-28T16:52:49;4.40;87.50
6291;DHT22;3178;48.730;8.990;2023-02-28T16:55:17;4.30;88.40
6291;DHT22;3178;48.730;8.990;2023-02-28T16:57:44;4.30;88.40
6291;DHT22;3178;48.730;8.990;2023-02-28T17:00:13;4.20;88.80
6291;DHT22;3178;48.730;8.990;2023-02-28T17:02:39;4.20;88.70
6291;DHT22;3178;48.730;8.990;2023-02-28T17:05:05;4.10;89.50
6291;DHT22;3178;48.730;8.990;2023-02-28T17:07:32;4.10;89.40
6291;DHT22;3178;48.730;8.990;2023-02-28T17:09:58;4.00;90.00
6291;DHT22;3178;48.730;8.990;2023-02-28T17:12:24;3.90;90.40
6291;DHT22;3178;48.730;8.990;2023-02-28T17:14:50;3.90;90.60
6291;DHT22;3178;48.730;8.990;2023-02-28T17:17:18;3.90;90.60
6291;DHT22;3178;48.730;8.990;2023-02-28T17:19:45;3.80;90.90
6291;DHT22;3178;48.730;8.990;2023-02-28T17:22:10;3.80;91.00
6291;DHT22;3178;48.730;8.990;2023-02-28T17:24:36;3.70;91.00
6291;DHT22;3178;48.730;8.990;2023-02-28T17:27:02;3.70;91.60
6291;DHT22;3178;48.730;8.990;2023-02-28T17:29:28;3.70;91.50
6291;DHT22;3178;48.730;8.990;2023-02-28T17:31:54;3.60;91.80
6291;DHT22;3178;48.730;8.990;2023-02-28T17:34:20;3.60;92.30
6291;DHT22;3178;48.730;8.990;2023-02-28T17:36:48;3.50;92.30
6291;DHT22;3178;48.730;8.990;2023-02-28T17:39:15;3.50;92.50
6291;DHT22;3178;48.730;8.990;2023-02-28T17:41:45;3.50;92.70
6291;DHT22;3178;48.730;8.990;2023-02-28T17:44:10;3.40;92.90
6291;DHT22;3178;48.730;8.990;2023-02-28T17:46:36;3.40;93.20
6291;DHT22;3178;48.730;8.990;2023-02-28T17:49:02;3.30;93.10
6291;DHT22;3178;48.730;8.990;2023-02-28T17:51:27;3.20;93.70
6291;DHT22;3178;48.730;8.990;2023-02-28T17:53:53;3.20;93.80
6291;DHT22;3178;48.730;8.990;2023-02-28T17:56:22;3.10;94.20
6291;DHT22;3178;48.730;8.990;2023-02-28T17:58:49;3.10;94.40
6291;DHT22;3178;48.730;8.990;2023-02-28T18:01:15;3.10;94.70
6291;DHT22;3178;48.730;8.990;2023-02-28T18:03:40;3.00;94.90
6291;DHT22;3178;48.730;8.990;2023-02-28T18:06:07;3.00;95.10
6291;DHT22;3178;48.730;8.990;2023-02-28T18:08:38;2.90;95.30
6291;DHT22;3178;48.730;8.990;2023-02-28T18:11:04;2.90;95.60
6291;DHT22;3178;48.730;8.990;2023-02-28T18:13:29;2.80;95.90
6291;DHT22;3178;48.730;8.990;2023-02-28T18:15:55;2.70;96.20
6291;DHT22;3178;48.730;8.990;2023-02-28T18:18:20;2.70;96.40
6291;DHT22;3178;48.730;8.990;2023-02-28T18:20:46;2.70;96.80